createdAt,value
2019-04-07T00:00:58.585Z,23.80
2019-04-07T00:03:29.449Z,24.12
2019-04-07T00:06:00.267Z,24.65
2019-04-07T00:08:31.192Z,23.75
2019-04-07T00:11:01.416Z,24.60
2019-04-07T00:13:31.441Z,24.27
2019-04-07T00:16:01.925Z,23.98
2019-04-07T00:18:32.597Z,23.52
2019-04-07T00:21:02.629Z,25.95
2019-04-07T00:23:32.927Z,26.68
2019-04-07T00:26:06.456Z,24.27
2019-04-07T00:28:36.772Z,25.92
2019-04-07T00:31:07.287Z,29.07
2019-04-07T00:33:38.830Z,28.02
2019-04-07T00:36:08.663Z,26.93
2019-04-07T00:38:38.604Z,26.07
2019-04-07T00:41:08.877Z,29.05
2019-04-07T00:43:40.620Z,27.75
2019-04-07T00:46:11.614Z,27.85
2019-04-07T00:48:42.315Z,27.52
2019-04-07T00:51:12.415Z,28.70
2019-04-07T00:53:44.291Z,29.15
2019-04-07T00:56:14.663Z,30.27
2019-04-07T00:58:44.582Z,28.65
2019-04-07T01:01:16.447Z,29.30
2019-04-07T01:03:46.876Z,27.67
2019-04-07T01:06:16.821Z,29.60
2019-04-07T01:08:46.702Z,33.38
2019-04-07T01:11:16.769Z,29.67
2019-04-07T01:13:48.054Z,30.23
2019-04-07T01:16:17.929Z,31.12
2019-04-07T01:18:48.117Z,34.15
2019-04-07T01:21:18.064Z,31.65
2019-04-07T01:23:47.901Z,32.83
2019-04-07T01:26:18.534Z,29.80
2019-04-07T01:28:49.152Z,32.42
2019-04-07T01:31:18.943Z,32.03
2019-04-07T01:33:48.907Z,31.87
2019-04-07T01:36:19.286Z,34.55
2019-04-07T01:38:49.168Z,31.05
2019-04-07T01:41:29.672Z,31.73
2019-04-07T01:44:04.746Z,34.78
2019-04-07T01:46:40.326Z,34.25
2019-04-07T01:49:27.995Z,33.25
2019-04-07T01:52:13.008Z,34.08
2019-04-07T01:54:47.499Z,30.17
2019-04-07T01:57:24.855Z,33.70
2019-04-07T02:00:05.318Z,32.60
2019-04-07T02:02:54.526Z,32.25
2019-04-07T02:05:27.877Z,32.88
2019-04-07T02:08:14.547Z,34.73
2019-04-07T02:11:05.013Z,34.13
2019-04-07T02:13:55.810Z,31.90
2019-04-07T02:16:34.332Z,32.93
2019-04-07T02:19:15.407Z,33.48
2019-04-07T02:22:01.985Z,32.73
2019-04-07T02:24:49.881Z,32.60
2019-04-07T02:27:28.418Z,32.40
2019-04-07T02:30:16.175Z,34.03
2019-04-07T02:33:04.889Z,34.53
2019-04-07T02:35:39.058Z,34.98
2019-04-07T02:38:27.548Z,33.90
2019-04-07T02:41:00.641Z,35.00
2019-04-07T02:43:34.876Z,33.18
2019-04-07T02:46:25.508Z,33.40
2019-04-07T02:49:12.360Z,35.08
2019-04-07T02:51:50.660Z,33.20
2019-04-07T02:54:38.716Z,34.48
2019-04-07T02:57:10.160Z,36.20
2019-04-07T02:59:57.785Z,33.98
2019-04-07T03:02:45.681Z,31.80
2019-04-07T03:05:22.381Z,33.25
2019-04-07T03:08:01.579Z,35.78
2019-04-07T03:10:42.874Z,33.92
2019-04-07T03:13:30.276Z,32.60
2019-04-07T03:16:04.911Z,33.00
2019-04-07T03:18:36.326Z,33.63
2019-04-07T03:21:17.048Z,33.88
2019-04-07T03:23:52.985Z,32.28
2019-04-07T03:26:32.385Z,35.35
2019-04-07T03:29:20.837Z,34.98
2019-04-07T03:31:56.823Z,35.68
2019-04-07T03:34:30.825Z,35.65
2019-04-07T03:37:22.865Z,35.17
2019-04-07T03:39:44.459Z,34.40
2019-04-07T03:42:15.903Z,33.90
2019-04-07T03:44:56.641Z,33.23
2019-04-07T03:47:30.060Z,33.28
2019-04-07T03:50:02.144Z,32.50
2019-04-07T03:52:45.022Z,33.38
2019-04-07T03:55:23.266Z,31.30
2019-04-07T03:58:03.906Z,30.37
2019-04-07T04:00:53.193Z,30.00
2019-04-07T04:03:32.219Z,29.37
2019-04-07T04:06:07.392Z,27.75
2019-04-07T04:08:42.879Z,27.50
2019-04-07T04:11:15.244Z,25.77
2019-04-07T04:13:49.531Z,26.27
2019-04-07T04:16:20.135Z,27.07
2019-04-07T04:18:50.332Z,26.80
2019-04-07T04:21:22.026Z,27.05
2019-04-07T04:23:53.046Z,25.80
2019-04-07T04:26:23.818Z,25.08
2019-04-07T04:28:55.167Z,25.10
2019-04-07T04:31:25.671Z,23.40
2019-04-07T04:33:55.675Z,22.93
2019-04-07T04:36:27.284Z,22.62
2019-04-07T04:38:57.944Z,21.15
2019-04-07T04:41:29.354Z,22.17
2019-04-07T04:44:00.470Z,21.90
2019-04-07T04:46:30.833Z,22.22
2019-04-07T04:49:00.605Z,21.82
2019-04-07T04:51:34.902Z,20.30
2019-04-07T04:54:01.887Z,21.48
2019-04-07T04:56:32.784Z,19.95
2019-04-07T04:59:02.749Z,21.37
2019-04-07T05:01:33.122Z,20.75
2019-04-07T05:04:03.898Z,19.40
2019-04-07T05:06:34.512Z,21.80
2019-04-07T05:09:05.781Z,21.10
2019-04-07T05:11:37.213Z,21.70
2019-04-07T05:14:08.955Z,20.45
2019-04-07T05:16:39.972Z,19.10
2019-04-07T05:19:10.991Z,20.27
2019-04-07T05:21:41.557Z,19.15
2019-04-07T05:24:11.496Z,17.80
2019-04-07T05:26:41.957Z,15.13
2019-04-07T05:29:12.070Z,13.30
2019-04-07T05:31:41.883Z,12.75
2019-04-07T05:34:18.348Z,12.55
2019-04-07T05:36:44.702Z,13.55
2019-04-07T05:39:15.278Z,12.82
2019-04-07T05:41:45.822Z,10.78
2019-04-07T05:44:16.753Z,11.73
2019-04-07T05:46:49.488Z,11.22
2019-04-07T05:49:18.982Z,9.98
2019-04-07T05:51:50.445Z,11.93
2019-04-07T05:54:20.932Z,11.48
2019-04-07T05:56:51.530Z,11.15
2019-04-07T05:59:22.113Z,11.25
2019-04-07T06:01:58.518Z,10.32
2019-04-07T06:04:23.944Z,10.65
2019-04-07T06:06:56.190Z,10.10
2019-04-07T06:09:25.255Z,10.03
2019-04-07T06:11:55.144Z,10.88
2019-04-07T06:14:26.014Z,9.60
2019-04-07T06:16:56.224Z,9.98
2019-04-07T06:19:26.235Z,8.55
2019-04-07T06:21:55.991Z,9.48
2019-04-07T06:24:28.804Z,18.55
2019-04-07T06:26:57.532Z,9.80
2019-04-07T06:29:28.082Z,13.10
2019-04-07T06:31:57.853Z,17.15
2019-04-07T06:34:28.112Z,16.93
2019-04-07T06:36:58.989Z,12.40
2019-04-07T06:39:31.852Z,10.70
2019-04-07T06:42:01.512Z,10.93
2019-04-07T06:44:32.224Z,15.58
2019-04-07T06:47:06.639Z,10.40
2019-04-07T06:49:54.712Z,9.40
2019-04-07T06:52:26.138Z,7.83
2019-04-07T06:55:14.652Z,7.80
2019-04-07T06:57:46.734Z,7.72
2019-04-07T07:00:27.006Z,7.58
2019-04-07T07:03:13.718Z,16.73
2019-04-07T07:05:54.846Z,20.88
2019-04-07T07:08:46.342Z,19.52
2019-04-07T07:11:27.226Z,22.55
2019-04-07T07:13:55.687Z,21.90
2019-04-07T07:16:29.962Z,18.65
2019-04-07T07:19:02.208Z,11.93
2019-04-07T07:21:40.394Z,12.65
2019-04-07T07:24:10.396Z,10.18
2019-04-07T07:26:41.085Z,10.70
2019-04-07T07:29:13.258Z,9.85
2019-04-07T07:31:44.855Z,9.33
2019-04-07T07:34:15.579Z,10.13
2019-04-07T07:36:47.912Z,20.50
2019-04-07T07:39:18.803Z,14.13
2019-04-07T07:41:51.665Z,9.10
2019-04-07T07:44:22.296Z,8.55
2019-04-07T07:46:52.742Z,8.20
2019-04-07T07:49:23.089Z,8.18
2019-04-07T07:51:52.890Z,8.10
2019-04-07T07:54:23.021Z,7.62
2019-04-07T07:56:54.075Z,8.25
2019-04-07T07:59:30.599Z,7.85
2019-04-07T08:01:58.936Z,6.80
2019-04-07T08:04:29.145Z,6.55
2019-04-07T08:07:02.349Z,5.72
2019-04-07T08:09:32.921Z,7.15
2019-04-07T08:12:03.584Z,5.65
2019-04-07T08:14:34.794Z,7.15
2019-04-07T08:17:05.480Z,6.05
2019-04-07T08:19:38.213Z,6.83
2019-04-07T08:22:08.008Z,6.85
2019-04-07T08:24:38.995Z,6.87
2019-04-07T08:27:08.903Z,6.10
2019-04-07T08:29:39.827Z,6.92
2019-04-07T08:32:10.926Z,6.45
2019-04-07T08:34:42.601Z,6.83
2019-04-07T08:37:14.409Z,5.72
2019-04-07T08:39:44.231Z,5.60
2019-04-07T08:42:17.496Z,5.92
2019-04-07T08:44:46.205Z,5.72
2019-04-07T08:47:21.811Z,5.60
2019-04-07T08:49:48.304Z,6.50
2019-04-07T08:52:18.570Z,5.03
2019-04-07T08:54:51.433Z,5.12
2019-04-07T08:57:20.048Z,5.65
2019-04-07T08:59:51.429Z,6.03
2019-04-07T09:02:25.439Z,5.45
2019-04-07T09:04:55.868Z,4.65
2019-04-07T09:07:26.573Z,5.87
2019-04-07T09:09:58.761Z,5.72
2019-04-07T09:12:31.117Z,6.05
2019-04-07T09:15:03.961Z,5.25
2019-04-07T09:17:40.499Z,5.30
2019-04-07T09:20:10.415Z,5.50
2019-04-07T09:22:44.796Z,6.30
2019-04-07T09:25:17.178Z,6.33
2019-04-07T09:27:50.220Z,6.45
2019-04-07T09:30:27.909Z,5.92
2019-04-07T09:33:05.290Z,5.85
2019-04-07T09:35:49.753Z,6.12
2019-04-07T09:38:25.014Z,6.10
2019-04-07T09:41:11.028Z,6.33
2019-04-07T09:44:01.089Z,5.70
2019-04-07T09:46:39.586Z,5.85
2019-04-07T09:49:26.830Z,5.33
2019-04-07T09:51:58.263Z,6.45
2019-04-07T09:54:51.810Z,6.58
2019-04-07T09:57:24.691Z,6.28
2019-04-07T09:59:57.490Z,6.95
2019-04-07T10:02:31.862Z,6.05
2019-04-07T10:05:02.007Z,7.70
2019-04-07T10:07:33.542Z,7.08
2019-04-07T10:10:13.013Z,6.70
2019-04-07T10:12:42.624Z,6.58
2019-04-07T10:15:16.758Z,8.03
2019-04-07T10:17:53.974Z,8.18
2019-04-07T10:20:42.899Z,7.58
2019-04-07T10:23:17.688Z,7.17
2019-04-07T10:25:52.213Z,8.53
2019-04-07T10:28:41.960Z,8.58
2019-04-07T10:31:30.530Z,8.53
2019-04-07T10:34:09.286Z,8.10
2019-04-07T10:36:59.948Z,8.50
2019-04-07T10:39:41.454Z,8.60
2019-04-07T10:42:23.524Z,9.10
2019-04-07T10:44:55.641Z,8.63
2019-04-07T10:47:43.525Z,9.10
2019-04-07T10:50:32.542Z,9.03
2019-04-07T10:53:04.897Z,9.90
2019-04-07T10:55:44.101Z,9.70
2019-04-07T10:58:31.343Z,9.70
2019-04-07T11:01:11.827Z,9.25
2019-04-07T11:03:53.929Z,9.15
2019-04-07T11:06:40.635Z,10.38
2019-04-07T11:09:25.613Z,10.43
2019-04-07T11:12:14.459Z,10.50
2019-04-07T11:14:46.582Z,10.35
2019-04-07T11:17:25.289Z,10.35
2019-04-07T11:20:15.001Z,10.35
2019-04-07T11:22:56.241Z,10.82
2019-04-07T11:25:47.763Z,11.50
2019-04-07T11:28:22.593Z,11.20
2019-04-07T11:30:57.455Z,11.75
2019-04-07T11:33:36.158Z,11.57
2019-04-07T11:36:17.657Z,11.03
2019-04-07T11:38:53.455Z,11.28
2019-04-07T11:41:42.374Z,11.15
2019-04-07T11:44:13.979Z,10.90
2019-04-07T11:46:48.373Z,11.78
2019-04-07T11:49:23.279Z,12.35
2019-04-07T11:51:55.723Z,13.00
2019-04-07T11:54:27.155Z,13.65
2019-04-07T11:57:08.623Z,13.22
2019-04-07T11:59:57.653Z,13.22
2019-04-07T12:02:43.352Z,13.72
2019-04-07T12:05:15.828Z,12.88
2019-04-07T12:07:58.091Z,11.75
2019-04-07T12:10:34.409Z,13.40
2019-04-07T12:13:10.451Z,13.38
2019-04-07T12:15:49.760Z,13.40
2019-04-07T12:18:21.870Z,14.68
2019-04-07T12:20:53.361Z,12.98
2019-04-07T12:23:30.740Z,14.00
2019-04-07T12:26:04.271Z,14.18
2019-04-07T12:28:38.451Z,14.20
2019-04-07T12:31:22.695Z,14.18
2019-04-07T12:34:00.776Z,14.33
2019-04-07T12:36:38.659Z,14.58
2019-04-07T12:39:30.126Z,17.70
2019-04-07T12:42:18.527Z,17.77
2019-04-07T12:45:05.286Z,15.83
2019-04-07T12:47:36.662Z,15.18
2019-04-07T12:50:26.740Z,13.48
2019-04-07T12:53:15.271Z,16.85
2019-04-07T12:55:57.591Z,13.90
2019-04-07T12:58:26.604Z,11.15
2019-04-07T13:01:19.275Z,13.55
2019-04-07T13:03:50.598Z,13.38
2019-04-07T13:06:42.425Z,15.70
2019-04-07T13:09:19.446Z,12.88
2019-04-07T13:12:07.952Z,11.53
2019-04-07T13:14:56.108Z,10.23
2019-04-07T13:17:31.387Z,10.72
2019-04-07T13:20:00.896Z,10.03
2019-04-07T13:22:35.179Z,9.75
2019-04-07T13:25:11.810Z,8.83
2019-04-07T13:27:55.581Z,8.70
2019-04-07T13:30:39.100Z,9.58
2019-04-07T13:33:29.567Z,8.43
2019-04-07T13:36:17.846Z,8.98
2019-04-07T13:38:55.762Z,9.65
2019-04-07T13:41:42.960Z,10.95
2019-04-07T13:44:16.066Z,9.63
2019-04-07T13:46:59.087Z,10.78
2019-04-07T13:49:40.247Z,10.13
2019-04-07T13:52:20.732Z,10.90
2019-04-07T13:55:16.488Z,9.30
2019-04-07T13:57:54.945Z,8.30
2019-04-07T14:00:38.249Z,10.35
2019-04-07T14:03:25.509Z,10.35
2019-04-07T14:05:56.941Z,9.25
2019-04-07T14:08:40.512Z,9.98
2019-04-07T14:11:18.699Z,10.72
2019-04-07T14:13:56.724Z,10.88
2019-04-07T14:16:40.273Z,11.22
2019-04-07T14:19:14.656Z,12.45
2019-04-07T14:21:46.219Z,11.73
2019-04-07T14:24:18.696Z,11.55
2019-04-07T14:27:05.482Z,12.00
2019-04-07T14:29:37.040Z,11.05
2019-04-07T14:32:18.382Z,10.93
2019-04-07T14:35:07.493Z,10.72
2019-04-07T14:37:57.215Z,9.53
2019-04-07T14:40:34.913Z,10.78
2019-04-07T14:43:15.843Z,10.43
2019-04-07T14:45:48.790Z,9.58
2019-04-07T14:48:21.680Z,7.92
2019-04-07T14:50:57.107Z,9.98
2019-04-07T14:53:34.506Z,9.98
2019-04-07T14:56:19.855Z,10.75
2019-04-07T14:58:56.207Z,10.32
2019-04-07T15:01:34.815Z,9.35
2019-04-07T15:04:05.262Z,11.48
2019-04-07T15:06:35.100Z,9.63
2019-04-07T15:09:08.375Z,9.53
2019-04-07T15:11:41.165Z,8.83
2019-04-07T15:14:11.634Z,7.95
2019-04-07T15:16:43.909Z,9.10
2019-04-07T15:19:14.430Z,7.95
2019-04-07T15:21:45.189Z,7.08
2019-04-07T15:24:16.471Z,6.78
2019-04-07T15:26:49.786Z,7.47
2019-04-07T15:29:18.772Z,7.10
2019-04-07T15:31:50.828Z,7.40
2019-04-07T15:34:20.124Z,7.67
2019-04-07T15:36:51.070Z,7.47
2019-04-07T15:39:21.589Z,7.87
2019-04-07T15:41:52.237Z,7.85
2019-04-07T15:44:23.645Z,7.58
2019-04-07T15:46:53.733Z,7.22
2019-04-07T15:49:27.412Z,7.72
2019-04-07T15:51:57.182Z,7.80
2019-04-07T15:54:28.539Z,8.68
2019-04-07T15:56:59.149Z,8.88
2019-04-07T15:59:30.379Z,8.48
2019-04-07T16:02:01.218Z,7.47
2019-04-07T16:04:31.958Z,7.83
2019-04-07T16:07:02.406Z,8.03
2019-04-07T16:09:40.347Z,8.60
2019-04-07T16:12:04.353Z,8.63
2019-04-07T16:14:34.204Z,7.83
2019-04-07T16:17:05.702Z,7.80
2019-04-07T16:19:42.228Z,8.18
2019-04-07T16:22:11.229Z,7.80
2019-04-07T16:24:39.546Z,7.58
2019-04-07T16:27:09.331Z,6.97
2019-04-07T16:29:39.818Z,7.83
2019-04-07T16:32:11.313Z,7.37
2019-04-07T16:34:42.790Z,6.85
2019-04-07T16:37:12.568Z,6.95
2019-04-07T16:39:42.609Z,6.97
2019-04-07T16:42:14.108Z,6.65
2019-04-07T16:44:44.576Z,6.08
2019-04-07T16:47:20.837Z,6.40
2019-04-07T16:49:48.628Z,6.90
2019-04-07T16:52:20.375Z,6.55
2019-04-07T16:54:51.529Z,7.22
2019-04-07T16:57:27.043Z,7.08
2019-04-07T16:59:54.236Z,6.75
2019-04-07T17:02:25.169Z,7.30
2019-04-07T17:04:55.804Z,7.25
2019-04-07T17:07:26.286Z,6.45
2019-04-07T17:09:57.480Z,6.20
2019-04-07T17:12:27.617Z,6.90
2019-04-07T17:14:57.826Z,6.15
2019-04-07T17:17:28.314Z,6.65
2019-04-07T17:19:59.636Z,6.40
2019-04-07T17:22:30.475Z,5.75
2019-04-07T17:25:03.202Z,5.90
2019-04-07T17:27:32.614Z,5.00
2019-04-07T17:30:03.043Z,6.87
2019-04-07T17:32:35.818Z,5.17
2019-04-07T17:35:07.735Z,4.55
2019-04-07T17:37:37.510Z,4.72
2019-04-07T17:40:22.595Z,4.22
2019-04-07T17:42:54.016Z,4.65
2019-04-07T17:45:45.128Z,4.67
2019-04-07T17:48:37.044Z,3.92
2019-04-07T17:51:04.559Z,4.10
2019-04-07T17:53:37.264Z,4.20
2019-04-07T17:56:29.476Z,4.65
2019-04-07T17:59:14.619Z,3.90
2019-04-07T18:01:44.916Z,4.65
2019-04-07T18:04:34.857Z,4.80
2019-04-07T18:07:10.078Z,4.83
2019-04-07T18:09:42.020Z,5.12
2019-04-07T18:12:15.718Z,4.53
2019-04-07T18:14:52.108Z,4.35
2019-04-07T18:17:45.670Z,4.78
2019-04-07T18:20:15.800Z,4.75
2019-04-07T18:22:51.451Z,4.67
2019-04-07T18:25:24.001Z,4.70
2019-04-07T18:27:56.745Z,4.72
2019-04-07T18:30:31.477Z,5.05
2019-04-07T18:33:19.277Z,4.10
2019-04-07T18:36:06.678Z,4.45
2019-04-07T18:38:48.412Z,3.77
2019-04-07T18:41:36.357Z,4.05
2019-04-07T18:44:11.743Z,3.58
2019-04-07T18:46:52.247Z,4.15
2019-04-07T18:49:23.911Z,3.55
2019-04-07T18:51:55.849Z,4.15
2019-04-07T18:54:44.422Z,3.90
2019-04-07T18:57:18.298Z,3.87
2019-04-07T19:00:06.030Z,3.92
2019-04-07T19:02:39.946Z,3.85
2019-04-07T19:05:15.274Z,3.98
2019-04-07T19:08:05.788Z,3.70
2019-04-07T19:10:53.230Z,3.10
2019-04-07T19:13:27.196Z,3.62
2019-04-07T19:15:59.815Z,3.40
2019-04-07T19:18:34.697Z,3.10
2019-04-07T19:21:09.807Z,3.47
2019-04-07T19:23:45.227Z,3.70
2019-04-07T19:26:26.719Z,2.90
2019-04-07T19:29:08.378Z,3.67
2019-04-07T19:31:56.408Z,3.50
2019-04-07T19:34:31.778Z,3.35
2019-04-07T19:37:22.593Z,3.37
2019-04-07T19:39:58.111Z,3.10
2019-04-07T19:42:31.883Z,3.20
2019-04-07T19:45:11.246Z,2.92
2019-04-07T19:47:55.241Z,3.27
2019-04-07T19:50:43.408Z,2.80
2019-04-07T19:53:27.427Z,3.22
2019-04-07T19:56:00.868Z,2.98
2019-04-07T19:58:45.377Z,2.85
2019-04-07T20:01:17.077Z,3.30
2019-04-07T20:03:58.263Z,2.92
2019-04-07T20:06:46.513Z,2.98
2019-04-07T20:09:34.544Z,3.30
2019-04-07T20:12:22.992Z,2.77
2019-04-07T20:15:04.194Z,3.42
2019-04-07T20:17:36.847Z,2.75
2019-04-07T20:20:20.395Z,2.60
2019-04-07T20:22:58.791Z,2.80
2019-04-07T20:25:37.585Z,2.87
2019-04-07T20:28:32.569Z,2.83
2019-04-07T20:31:04.363Z,2.47
2019-04-07T20:33:36.897Z,2.58
2019-04-07T20:36:21.489Z,2.50
2019-04-07T20:39:05.963Z,2.60
2019-04-07T20:41:44.825Z,2.42
2019-04-07T20:44:25.847Z,2.83
2019-04-07T20:47:01.713Z,3.00
2019-04-07T20:49:40.257Z,2.72
2019-04-07T20:52:15.416Z,3.25
2019-04-07T20:55:05.457Z,3.02
2019-04-07T20:57:46.344Z,3.20
2019-04-07T21:00:18.665Z,3.58
2019-04-07T21:03:11.061Z,3.00
2019-04-07T21:05:42.484Z,2.92
2019-04-07T21:08:14.512Z,3.17
2019-04-07T21:10:55.982Z,2.90
2019-04-07T21:13:27.920Z,2.95
2019-04-07T21:16:11.411Z,3.12
2019-04-07T21:18:46.880Z,2.90
2019-04-07T21:21:19.660Z,3.20
2019-04-07T21:23:53.838Z,3.77
2019-04-07T21:26:27.282Z,3.42
2019-04-07T21:29:14.882Z,2.85
2019-04-07T21:31:47.701Z,3.10
2019-04-07T21:34:26.076Z,2.90
2019-04-07T21:37:00.458Z,3.12
2019-04-07T21:39:43.216Z,2.50
2019-04-07T21:42:34.076Z,3.08
2019-04-07T21:45:27.811Z,2.98
2019-04-07T21:48:00.252Z,3.00
2019-04-07T21:50:42.555Z,3.27
2019-04-07T21:53:14.554Z,3.30
2019-04-07T21:55:52.162Z,2.87
2019-04-07T21:58:29.730Z,2.85
2019-04-07T22:01:08.162Z,3.12
2019-04-07T22:03:49.025Z,3.10
2019-04-07T22:06:32.105Z,3.02
2019-04-07T22:09:15.845Z,2.95
2019-04-07T22:11:45.073Z,3.20
2019-04-07T22:14:16.703Z,3.40
2019-04-07T22:16:47.152Z,3.22
2019-04-07T22:19:17.675Z,3.33
2019-04-07T22:21:48.088Z,3.10
2019-04-07T22:24:18.989Z,3.50
2019-04-07T22:26:50.185Z,3.20
2019-04-07T22:29:20.438Z,3.42
2019-04-07T22:31:51.900Z,3.92
2019-04-07T22:34:22.729Z,3.60
2019-04-07T22:36:53.732Z,3.75
2019-04-07T22:39:27.508Z,3.22
2019-04-07T22:41:57.022Z,3.47
2019-04-07T22:44:27.407Z,3.30
2019-04-07T22:47:00.316Z,3.80
2019-04-07T22:49:32.192Z,3.20
2019-04-07T22:52:03.407Z,3.45
2019-04-07T22:54:34.849Z,4.03
2019-04-07T22:57:06.108Z,3.45
2019-04-07T22:59:36.565Z,3.52
2019-04-07T23:02:07.352Z,3.40
2019-04-07T23:04:38.506Z,3.52
2019-04-07T23:07:08.515Z,3.58
2019-04-07T23:09:39.055Z,3.92
2019-04-07T23:12:09.221Z,3.45
2019-04-07T23:14:40.055Z,3.30
2019-04-07T23:17:12.015Z,3.37
2019-04-07T23:19:42.018Z,3.67
2019-04-07T23:22:12.384Z,3.90
2019-04-07T23:24:43.034Z,3.45
2019-04-07T23:27:14.519Z,3.37
2019-04-07T23:29:46.961Z,4.20
2019-04-07T23:32:17.098Z,3.58
2019-04-07T23:34:47.783Z,3.62
2019-04-07T23:37:18.620Z,3.35
2019-04-07T23:39:49.595Z,3.50
2019-04-07T23:42:20.058Z,3.60
2019-04-07T23:44:50.811Z,3.37
2019-04-07T23:47:27.109Z,3.50
2019-04-07T23:49:58.617Z,3.25
2019-04-07T23:52:29.310Z,2.83
2019-04-07T23:54:59.742Z,3.00
2019-04-07T23:57:29.619Z,2.85
